sensor_id;sensor_type;location;lat;lon;timestamp;P1;durP1;ratioP1;P2;durP2;ratioP2
46407;SDS011;32110;45.724;21.276;2023-02-18T00:00:25;56.30;;;29.88;;
46407;SDS011;32110;45.724;21.276;2023-02-18T00:02:51;53.45;;;29.30;;
46407;SDS011;32110;45.724;21.276;2023-02-18T00:05:17;52.17;;;28.20;;
46407;SDS011;32110;45.724;21.276;2023-02-18T00:07:42;55.72;;;29.20;;
46407;SDS011;32110;45.724;21.276;2023-02-18T00:10:10;58.50;;;31.00;;
46407;SDS011;32110;45.724;21.276;2023-02-18T00:12:36;52.95;;;29.58;;
46407;SDS011;32110;45.724;21.276;2023-02-18T00:15:01;59.88;;;30.13;;
46407;SDS011;32110;45.724;21.276;2023-02-18T00:17:27;54.95;;;29.40;;
46407;SDS011;32110;45.724;21.276;2023-02-18T00:19:53;54.97;;;29.30;;
46407;SDS011;32110;45.724;21.276;2023-02-18T00:22:18;53.23;;;28.53;;
46407;SDS011;32110;45.724;21.276;2023-02-18T00:24:43;55.10;;;30.08;;
46407;SDS011;32110;45.724;21.276;2023-02-18T00:27:09;53.23;;;29.70;;
46407;SDS011;32110;45.724;21.276;2023-02-18T00:29:34;53.90;;;29.90;;
46407;SDS011;32110;45.724;21.276;2023-02-18T00:31:59;57.25;;;31.20;;
46407;SDS011;32110;45.724;21.276;2023-02-18T00:34:24;55.90;;;30.00;;
46407;SDS011;32110;45.724;21.276;2023-02-18T00:36:50;53.55;;;29.35;;
46407;SDS011;32110;45.724;21.276;2023-02-18T00:39:15;52.23;;;29.30;;
46407;SDS011;32110;45.724;21.276;2023-02-18T00:41:41;53.45;;;28.60;;
46407;SDS011;32110;45.724;21.276;2023-02-18T00:44:06;52.38;;;29.00;;
46407;SDS011;32110;45.724;21.276;2023-02-18T00:46:32;53.90;;;28.60;;
46407;SDS011;32110;45.724;21.276;2023-02-18T00:48:58;55.17;;;30.10;;
46407;SDS011;32110;45.724;21.276;2023-02-18T00:51:23;53.13;;;29.70;;
46407;SDS011;32110;45.724;21.276;2023-02-18T00:53:49;54.47;;;30.30;;
46407;SDS011;32110;45.724;21.276;2023-02-18T00:56:14;58.38;;;30.33;;
46407;SDS011;32110;45.724;21.276;2023-02-18T00:58:40;55.47;;;31.20;;
46407;SDS011;32110;45.724;21.276;2023-02-18T01:01:06;56.43;;;31.57;;
46407;SDS011;32110;45.724;21.276;2023-02-18T01:03:32;56.90;;;30.20;;
46407;SDS011;32110;45.724;21.276;2023-02-18T01:05:57;55.05;;;30.25;;
46407;SDS011;32110;45.724;21.276;2023-02-18T01:08:22;56.07;;;31.13;;
46407;SDS011;32110;45.724;21.276;2023-02-18T01:10:48;56.20;;;30.55;;
46407;SDS011;32110;45.724;21.276;2023-02-18T01:13:14;57.13;;;30.98;;
46407;SDS011;32110;45.724;21.276;2023-02-18T01:15:40;54.35;;;30.23;;
46407;SDS011;32110;45.724;21.276;2023-02-18T01:18:05;54.83;;;30.45;;
46407;SDS011;32110;45.724;21.276;2023-02-18T01:20:32;56.92;;;29.70;;
46407;SDS011;32110;45.724;21.276;2023-02-18T01:22:57;61.63;;;32.10;;
46407;SDS011;32110;45.724;21.276;2023-02-18T01:25:22;54.80;;;29.83;;
46407;SDS011;32110;45.724;21.276;2023-02-18T01:27:47;54.60;;;29.73;;
46407;SDS011;32110;45.724;21.276;2023-02-18T01:30:14;54.87;;;29.40;;
46407;SDS011;32110;45.724;21.276;2023-02-18T01:32:39;54.33;;;28.95;;
46407;SDS011;32110;45.724;21.276;2023-02-18T01:35:05;53.20;;;30.27;;
46407;SDS011;32110;45.724;21.276;2023-02-18T01:37:30;52.83;;;28.88;;
46407;SDS011;32110;45.724;21.276;2023-02-18T01:39:56;50.40;;;27.95;;
46407;SDS011;32110;45.724;21.276;2023-02-18T01:42:25;51.50;;;28.10;;
46407;SDS011;32110;45.724;21.276;2023-02-18T01:44:51;50.60;;;26.60;;
46407;SDS011;32110;45.724;21.276;2023-02-18T01:47:16;52.85;;;28.90;;
46407;SDS011;32110;45.724;21.276;2023-02-18T01:49:42;52.08;;;27.77;;
46407;SDS011;32110;45.724;21.276;2023-02-18T01:52:20;48.38;;;26.98;;
46407;SDS011;32110;45.724;21.276;2023-02-18T01:54:48;53.20;;;26.63;;
46407;SDS011;32110;45.724;21.276;2023-02-18T01:57:16;48.50;;;27.95;;
46407;SDS011;32110;45.724;21.276;2023-02-18T01:59:43;51.50;;;27.92;;
46407;SDS011;32110;45.724;21.276;2023-02-18T02:02:11;52.50;;;27.58;;
46407;SDS011;32110;45.724;21.276;2023-02-18T02:04:37;52.95;;;28.45;;
46407;SDS011;32110;45.724;21.276;2023-02-18T02:07:03;56.10;;;28.60;;
46407;SDS011;32110;45.724;21.276;2023-02-18T02:09:29;48.28;;;28.38;;
46407;SDS011;32110;45.724;21.276;2023-02-18T02:17:27;49.75;;;26.92;;
46407;SDS011;32110;45.724;21.276;2023-02-18T02:30:30;46.08;;;26.08;;
46407;SDS011;32110;45.724;21.276;2023-02-18T02:33:13;50.55;;;26.08;;
46407;SDS011;32110;45.724;21.276;2023-02-18T02:35:43;46.97;;;27.25;;
46407;SDS011;32110;45.724;21.276;2023-02-18T02:38:25;53.38;;;27.30;;
46407;SDS011;32110;45.724;21.276;2023-02-18T02:46:06;50.95;;;26.55;;
46407;SDS011;32110;45.724;21.276;2023-02-18T02:53:42;49.53;;;26.38;;
46407;SDS011;32110;45.724;21.276;2023-02-18T02:56:10;49.13;;;26.92;;
46407;SDS011;32110;45.724;21.276;2023-02-18T02:58:37;49.40;;;27.35;;
46407;SDS011;32110;45.724;21.276;2023-02-18T03:06:43;49.20;;;26.58;;
46407;SDS011;32110;45.724;21.276;2023-02-18T03:11:51;51.08;;;27.55;;
46407;SDS011;32110;45.724;21.276;2023-02-18T03:14:21;47.75;;;26.52;;
46407;SDS011;32110;45.724;21.276;2023-02-18T03:19:54;51.88;;;26.45;;
46407;SDS011;32110;45.724;21.276;2023-02-18T03:22:22;48.78;;;26.45;;
46407;SDS011;32110;45.724;21.276;2023-02-18T03:24:49;52.78;;;27.65;;
46407;SDS011;32110;45.724;21.276;2023-02-18T03:30:00;49.28;;;27.27;;
46407;SDS011;32110;45.724;21.276;2023-02-18T03:32:26;44.53;;;25.27;;
46407;SDS011;32110;45.724;21.276;2023-02-18T03:34:54;48.17;;;26.42;;
46407;SDS011;32110;45.724;21.276;2023-02-18T03:37:21;43.30;;;24.33;;
46407;SDS011;32110;45.724;21.276;2023-02-18T03:39:47;47.65;;;24.73;;
46407;SDS011;32110;45.724;21.276;2023-02-18T03:42:14;45.13;;;25.25;;
46407;SDS011;32110;45.724;21.276;2023-02-18T03:44:40;46.10;;;24.50;;
46407;SDS011;32110;45.724;21.276;2023-02-18T03:47:05;45.93;;;23.40;;
46407;SDS011;32110;45.724;21.276;2023-02-18T03:49:30;46.67;;;24.43;;
46407;SDS011;32110;45.724;21.276;2023-02-18T03:51:55;40.93;;;23.70;;
46407;SDS011;32110;45.724;21.276;2023-02-18T03:54:21;45.47;;;24.10;;
46407;SDS011;32110;45.724;21.276;2023-02-18T03:56:46;42.37;;;23.73;;
46407;SDS011;32110;45.724;21.276;2023-02-18T03:59:11;41.43;;;23.70;;
46407;SDS011;32110;45.724;21.276;2023-02-18T04:01:37;45.90;;;24.63;;
46407;SDS011;32110;45.724;21.276;2023-02-18T04:04:02;39.10;;;22.63;;
46407;SDS011;32110;45.724;21.276;2023-02-18T04:06:28;40.70;;;22.30;;
46407;SDS011;32110;45.724;21.276;2023-02-18T04:08:53;41.65;;;22.13;;
46407;SDS011;32110;45.724;21.276;2023-02-18T04:11:18;40.03;;;21.90;;
46407;SDS011;32110;45.724;21.276;2023-02-18T04:13:44;44.27;;;22.40;;
46407;SDS011;32110;45.724;21.276;2023-02-18T04:16:09;46.13;;;23.35;;
46407;SDS011;32110;45.724;21.276;2023-02-18T04:18:34;41.30;;;21.43;;
46407;SDS011;32110;45.724;21.276;2023-02-18T04:20:59;38.33;;;19.97;;
46407;SDS011;32110;45.724;21.276;2023-02-18T04:23:25;43.78;;;22.58;;
46407;SDS011;32110;45.724;21.276;2023-02-18T04:25:50;44.07;;;22.80;;
46407;SDS011;32110;45.724;21.276;2023-02-18T04:28:15;39.90;;;21.00;;
46407;SDS011;32110;45.724;21.276;2023-02-18T04:30:41;42.45;;;22.25;;
46407;SDS011;32110;45.724;21.276;2023-02-18T04:33:07;40.90;;;21.10;;
46407;SDS011;32110;45.724;21.276;2023-02-18T04:35:32;40.15;;;21.48;;
46407;SDS011;32110;45.724;21.276;2023-02-18T04:37:57;37.95;;;19.70;;
46407;SDS011;32110;45.724;21.276;2023-02-18T04:40:22;37.17;;;18.77;;
46407;SDS011;32110;45.724;21.276;2023-02-18T04:42:50;37.25;;;18.58;;
46407;SDS011;32110;45.724;21.276;2023-02-18T04:45:15;35.20;;;19.38;;
46407;SDS011;32110;45.724;21.276;2023-02-18T04:47:41;42.17;;;20.67;;
46407;SDS011;32110;45.724;21.276;2023-02-18T04:50:06;39.03;;;21.13;;
46407;SDS011;32110;45.724;21.276;2023-02-18T04:52:32;41.58;;;20.63;;
46407;SDS011;32110;45.724;21.276;2023-02-18T04:54:57;39.40;;;19.73;;
46407;SDS011;32110;45.724;21.276;2023-02-18T04:57:23;37.30;;;20.27;;
46407;SDS011;32110;45.724;21.276;2023-02-18T04:59:48;35.30;;;19.33;;
46407;SDS011;32110;45.724;21.276;2023-02-18T05:02:13;39.07;;;20.43;;
46407;SDS011;32110;45.724;21.276;2023-02-18T05:04:39;35.25;;;19.77;;
46407;SDS011;32110;45.724;21.276;2023-02-18T05:07:04;35.63;;;20.20;;
46407;SDS011;32110;45.724;21.276;2023-02-18T05:09:29;35.73;;;19.47;;
46407;SDS011;32110;45.724;21.276;2023-02-18T05:11:54;35.85;;;19.52;;
46407;SDS011;32110;45.724;21.276;2023-02-18T05:14:20;33.17;;;18.10;;
46407;SDS011;32110;45.724;21.276;2023-02-18T05:16:45;33.25;;;18.95;;
46407;SDS011;32110;45.724;21.276;2023-02-18T05:19:14;34.85;;;18.38;;
46407;SDS011;32110;45.724;21.276;2023-02-18T05:21:39;33.40;;;18.30;;
46407;SDS011;32110;45.724;21.276;2023-02-18T05:24:05;35.33;;;18.52;;
46407;SDS011;32110;45.724;21.276;2023-02-18T05:26:30;35.45;;;18.63;;
46407;SDS011;32110;45.724;21.276;2023-02-18T05:28:55;36.00;;;19.80;;
46407;SDS011;32110;45.724;21.276;2023-02-18T05:31:21;37.35;;;19.63;;
46407;SDS011;32110;45.724;21.276;2023-02-18T05:33:46;37.83;;;20.05;;
46407;SDS011;32110;45.724;21.276;2023-02-18T05:36:12;35.15;;;20.08;;
46407;SDS011;32110;45.724;21.276;2023-02-18T05:38:37;37.20;;;19.73;;
46407;SDS011;32110;45.724;21.276;2023-02-18T05:41:02;33.37;;;18.03;;
46407;SDS011;32110;45.724;21.276;2023-02-18T05:43:27;32.10;;;17.83;;
46407;SDS011;32110;45.724;21.276;2023-02-18T05:45:53;32.67;;;18.13;;
46407;SDS011;32110;45.724;21.276;2023-02-18T05:48:18;30.53;;;17.33;;
46407;SDS011;32110;45.724;21.276;2023-02-18T05:50:43;37.83;;;19.23;;
46407;SDS011;32110;45.724;21.276;2023-02-18T05:53:08;33.65;;;17.35;;
46407;SDS011;32110;45.724;21.276;2023-02-18T05:55:34;37.23;;;18.40;;
46407;SDS011;32110;45.724;21.276;2023-02-18T05:58:02;33.42;;;18.17;;
46407;SDS011;32110;45.724;21.276;2023-02-18T06:00:28;31.08;;;18.42;;
46407;SDS011;32110;45.724;21.276;2023-02-18T06:02:54;30.80;;;17.38;;
46407;SDS011;32110;45.724;21.276;2023-02-18T06:05:19;33.07;;;18.40;;
46407;SDS011;32110;45.724;21.276;2023-02-18T06:07:45;31.90;;;17.63;;
46407;SDS011;32110;45.724;21.276;2023-02-18T06:10:10;37.17;;;19.13;;
46407;SDS011;32110;45.724;21.276;2023-02-18T06:12:35;30.15;;;17.30;;
46407;SDS011;32110;45.724;21.276;2023-02-18T06:15:01;31.13;;;17.43;;
46407;SDS011;32110;45.724;21.276;2023-02-18T06:17:26;35.92;;;18.38;;
46407;SDS011;32110;45.724;21.276;2023-02-18T06:19:51;36.23;;;18.70;;
46407;SDS011;32110;45.724;21.276;2023-02-18T06:22:16;37.03;;;19.77;;
46407;SDS011;32110;45.724;21.276;2023-02-18T06:24:42;35.90;;;18.77;;
46407;SDS011;32110;45.724;21.276;2023-02-18T06:27:07;37.00;;;18.37;;
46407;SDS011;32110;45.724;21.276;2023-02-18T06:29:32;34.13;;;18.23;;
46407;SDS011;32110;45.724;21.276;2023-02-18T06:31:59;34.17;;;18.48;;
46407;SDS011;32110;45.724;21.276;2023-02-18T06:34:25;40.97;;;17.80;;
46407;SDS011;32110;45.724;21.276;2023-02-18T06:36:50;34.47;;;16.85;;
46407;SDS011;32110;45.724;21.276;2023-02-18T06:39:16;32.38;;;16.90;;
46407;SDS011;32110;45.724;21.276;2023-02-18T06:41:41;31.97;;;16.60;;
46407;SDS011;32110;45.724;21.276;2023-02-18T06:44:06;33.47;;;16.70;;
46407;SDS011;32110;45.724;21.276;2023-02-18T06:46:32;30.42;;;16.40;;
46407;SDS011;32110;45.724;21.276;2023-02-18T06:48:57;31.98;;;17.13;;
46407;SDS011;32110;45.724;21.276;2023-02-18T06:51:22;32.30;;;15.93;;
46407;SDS011;32110;45.724;21.276;2023-02-18T06:53:47;33.30;;;16.47;;
46407;SDS011;32110;45.724;21.276;2023-02-18T06:56:13;34.20;;;16.40;;
46407;SDS011;32110;45.724;21.276;2023-02-18T06:58:38;32.13;;;16.67;;
46407;SDS011;32110;45.724;21.276;2023-02-18T07:01:03;30.37;;;17.07;;
46407;SDS011;32110;45.724;21.276;2023-02-18T07:03:29;31.83;;;16.35;;
46407;SDS011;32110;45.724;21.276;2023-02-18T07:05:54;37.07;;;17.10;;
46407;SDS011;32110;45.724;21.276;2023-02-18T07:08:19;33.73;;;17.30;;
46407;SDS011;32110;45.724;21.276;2023-02-18T07:10:44;34.93;;;18.10;;
46407;SDS011;32110;45.724;21.276;2023-02-18T07:13:10;35.58;;;17.95;;
46407;SDS011;32110;45.724;21.276;2023-02-18T07:15:36;32.70;;;16.97;;
46407;SDS011;32110;45.724;21.276;2023-02-18T07:18:01;37.33;;;18.07;;
46407;SDS011;32110;45.724;21.276;2023-02-18T07:20:26;30.65;;;16.25;;
46407;SDS011;32110;45.724;21.276;2023-02-18T07:22:52;35.70;;;17.67;;
46407;SDS011;32110;45.724;21.276;2023-02-18T07:25:17;34.60;;;18.57;;
46407;SDS011;32110;45.724;21.276;2023-02-18T07:27:42;35.53;;;17.58;;
46407;SDS011;32110;45.724;21.276;2023-02-18T07:30:08;33.37;;;17.87;;
46407;SDS011;32110;45.724;21.276;2023-02-18T07:32:33;34.92;;;18.02;;
46407;SDS011;32110;45.724;21.276;2023-02-18T07:34:58;37.15;;;18.65;;
46407;SDS011;32110;45.724;21.276;2023-02-18T07:37:24;36.27;;;19.03;;
46407;SDS011;32110;45.724;21.276;2023-02-18T07:39:49;36.80;;;19.03;;
46407;SDS011;32110;45.724;21.276;2023-02-18T07:42:14;36.37;;;18.17;;
46407;SDS011;32110;45.724;21.276;2023-02-18T07:44:40;42.47;;;20.73;;
46407;SDS011;32110;45.724;21.276;2023-02-18T07:47:06;44.00;;;22.10;;
46407;SDS011;32110;45.724;21.276;2023-02-18T07:49:31;36.05;;;19.52;;
46407;SDS011;32110;45.724;21.276;2023-02-18T07:51:56;37.70;;;18.02;;
46407;SDS011;32110;45.724;21.276;2023-02-18T07:54:21;39.27;;;18.97;;
46407;SDS011;32110;45.724;21.276;2023-02-18T07:56:47;42.23;;;19.57;;
46407;SDS011;32110;45.724;21.276;2023-02-18T07:59:12;39.75;;;19.83;;
46407;SDS011;32110;45.724;21.276;2023-02-18T08:01:38;37.63;;;18.88;;
46407;SDS011;32110;45.724;21.276;2023-02-18T08:04:03;40.53;;;19.83;;
46407;SDS011;32110;45.724;21.276;2023-02-18T08:06:42;41.08;;;20.38;;
46407;SDS011;32110;45.724;21.276;2023-02-18T08:09:07;39.20;;;19.98;;
46407;SDS011;32110;45.724;21.276;2023-02-18T08:11:33;41.37;;;20.40;;
46407;SDS011;32110;45.724;21.276;2023-02-18T08:13:58;45.05;;;24.80;;
46407;SDS011;32110;45.724;21.276;2023-02-18T08:16:24;44.63;;;21.08;;
46407;SDS011;32110;45.724;21.276;2023-02-18T08:18:50;44.53;;;22.65;;
46407;SDS011;32110;45.724;21.276;2023-02-18T08:21:16;43.67;;;22.42;;
46407;SDS011;32110;45.724;21.276;2023-02-18T08:23:42;108.03;;;52.83;;
46407;SDS011;32110;45.724;21.276;2023-02-18T08:26:07;210.60;;;98.78;;
46407;SDS011;32110;45.724;21.276;2023-02-18T08:28:33;252.82;;;122.70;;
46407;SDS011;32110;45.724;21.276;2023-02-18T08:30:58;230.10;;;115.38;;
46407;SDS011;32110;45.724;21.276;2023-02-18T08:33:24;172.40;;;87.90;;
46407;SDS011;32110;45.724;21.276;2023-02-18T08:35:50;136.15;;;70.90;;
46407;SDS011;32110;45.724;21.276;2023-02-18T08:38:16;98.03;;;49.28;;
46407;SDS011;32110;45.724;21.276;2023-02-18T08:40:41;72.35;;;35.50;;
46407;SDS011;32110;45.724;21.276;2023-02-18T08:43:06;68.80;;;33.83;;
46407;SDS011;32110;45.724;21.276;2023-02-18T08:45:32;66.75;;;30.90;;
46407;SDS011;32110;45.724;21.276;2023-02-18T08:47:57;56.93;;;27.47;;
46407;SDS011;32110;45.724;21.276;2023-02-18T08:50:22;53.67;;;25.10;;
46407;SDS011;32110;45.724;21.276;2023-02-18T08:52:50;50.25;;;25.48;;
46407;SDS011;32110;45.724;21.276;2023-02-18T08:55:16;51.53;;;25.17;;
46407;SDS011;32110;45.724;21.276;2023-02-18T08:57:44;48.80;;;24.13;;
46407;SDS011;32110;45.724;21.276;2023-02-18T09:00:10;50.03;;;24.80;;
46407;SDS011;32110;45.724;21.276;2023-02-18T09:02:36;49.33;;;24.58;;
46407;SDS011;32110;45.724;21.276;2023-02-18T09:05:01;51.77;;;25.00;;
46407;SDS011;32110;45.724;21.276;2023-02-18T09:07:26;63.28;;;31.27;;
46407;SDS011;32110;45.724;21.276;2023-02-18T09:09:51;64.77;;;30.77;;
46407;SDS011;32110;45.724;21.276;2023-02-18T09:12:17;56.25;;;28.90;;
46407;SDS011;32110;45.724;21.276;2023-02-18T09:14:42;58.57;;;29.53;;
46407;SDS011;32110;45.724;21.276;2023-02-18T09:17:07;58.30;;;29.00;;
46407;SDS011;32110;45.724;21.276;2023-02-18T09:19:32;59.43;;;28.03;;
46407;SDS011;32110;45.724;21.276;2023-02-18T09:21:58;60.07;;;28.83;;
46407;SDS011;32110;45.724;21.276;2023-02-18T09:24:23;59.13;;;29.13;;
46407;SDS011;32110;45.724;21.276;2023-02-18T09:26:51;55.42;;;28.20;;
46407;SDS011;32110;45.724;21.276;2023-02-18T09:29:16;54.78;;;28.38;;
46407;SDS011;32110;45.724;21.276;2023-02-18T09:31:43;59.67;;;28.75;;
46407;SDS011;32110;45.724;21.276;2023-02-18T09:34:09;59.53;;;28.85;;
46407;SDS011;32110;45.724;21.276;2023-02-18T09:36:34;55.03;;;28.30;;
46407;SDS011;32110;45.724;21.276;2023-02-18T09:39:00;57.65;;;30.00;;
46407;SDS011;32110;45.724;21.276;2023-02-18T09:41:41;58.58;;;28.00;;
46407;SDS011;32110;45.724;21.276;2023-02-18T09:49:27;60.75;;;29.77;;
46407;SDS011;32110;45.724;21.276;2023-02-18T09:51:53;55.85;;;28.33;;
46407;SDS011;32110;45.724;21.276;2023-02-18T09:54:20;59.90;;;30.45;;
46407;SDS011;32110;45.724;21.276;2023-02-18T09:56:45;62.75;;;29.33;;
46407;SDS011;32110;45.724;21.276;2023-02-18T09:59:21;56.60;;;28.20;;
46407;SDS011;32110;45.724;21.276;2023-02-18T10:01:48;54.55;;;27.48;;
46407;SDS011;32110;45.724;21.276;2023-02-18T10:04:17;59.88;;;27.38;;
46407;SDS011;32110;45.724;21.276;2023-02-18T10:06:43;58.65;;;26.77;;
46407;SDS011;32110;45.724;21.276;2023-02-18T10:09:20;59.55;;;28.13;;
46407;SDS011;32110;45.724;21.276;2023-02-18T10:11:50;57.95;;;28.92;;
46407;SDS011;32110;45.724;21.276;2023-02-18T10:14:16;62.25;;;29.90;;
46407;SDS011;32110;45.724;21.276;2023-02-18T10:16:42;59.17;;;28.70;;
46407;SDS011;32110;45.724;21.276;2023-02-18T10:19:19;59.90;;;28.63;;
46407;SDS011;32110;45.724;21.276;2023-02-18T10:21:44;54.63;;;27.50;;
46407;SDS011;32110;45.724;21.276;2023-02-18T10:26:55;54.00;;;27.73;;
46407;SDS011;32110;45.724;21.276;2023-02-18T10:29:20;54.75;;;27.23;;
46407;SDS011;32110;45.724;21.276;2023-02-18T10:36:50;54.88;;;28.40;;
46407;SDS011;32110;45.724;21.276;2023-02-18T10:44:29;55.97;;;27.67;;
46407;SDS011;32110;45.724;21.276;2023-02-18T10:52:08;63.50;;;28.97;;
46407;SDS011;32110;45.724;21.276;2023-02-18T10:57:19;57.03;;;28.58;;
46407;SDS011;32110;45.724;21.276;2023-02-18T10:59:53;56.55;;;29.27;;
46407;SDS011;32110;45.724;21.276;2023-02-18T11:02:19;57.03;;;28.95;;
46407;SDS011;32110;45.724;21.276;2023-02-18T11:04:45;58.72;;;29.25;;
46407;SDS011;32110;45.724;21.276;2023-02-18T11:07:30;55.78;;;26.83;;
46407;SDS011;32110;45.724;21.276;2023-02-18T11:10:01;67.72;;;30.38;;
46407;SDS011;32110;45.724;21.276;2023-02-18T11:17:34;57.53;;;29.85;;
46407;SDS011;32110;45.724;21.276;2023-02-18T11:20:04;58.20;;;29.25;;
46407;SDS011;32110;45.724;21.276;2023-02-18T11:22:42;56.15;;;28.52;;
46407;SDS011;32110;45.724;21.276;2023-02-18T11:25:24;56.58;;;28.77;;
46407;SDS011;32110;45.724;21.276;2023-02-18T11:27:57;52.08;;;26.80;;
46407;SDS011;32110;45.724;21.276;2023-02-18T11:30:41;52.40;;;27.95;;
46407;SDS011;32110;45.724;21.276;2023-02-18T11:33:25;54.80;;;27.33;;
46407;SDS011;32110;45.724;21.276;2023-02-18T11:35:54;51.88;;;27.33;;
46407;SDS011;32110;45.724;21.276;2023-02-18T11:40:54;53.97;;;27.02;;
46407;SDS011;32110;45.724;21.276;2023-02-18T11:43:20;54.53;;;28.13;;
46407;SDS011;32110;45.724;21.276;2023-02-18T11:45:45;53.63;;;28.17;;
46407;SDS011;32110;45.724;21.276;2023-02-18T11:48:15;53.40;;;27.35;;
46407;SDS011;32110;45.724;21.276;2023-02-18T11:50:40;53.30;;;27.08;;
46407;SDS011;32110;45.724;21.276;2023-02-18T11:53:25;56.43;;;29.10;;
46407;SDS011;32110;45.724;21.276;2023-02-18T11:55:55;49.47;;;25.65;;
46407;SDS011;32110;45.724;21.276;2023-02-18T11:58:21;50.33;;;26.70;;
46407;SDS011;32110;45.724;21.276;2023-02-18T12:00:50;55.50;;;27.33;;
46407;SDS011;32110;45.724;21.276;2023-02-18T12:06:01;58.17;;;29.95;;
46407;SDS011;32110;45.724;21.276;2023-02-18T12:08:27;58.00;;;30.63;;
46407;SDS011;32110;45.724;21.276;2023-02-18T12:10:57;54.95;;;27.80;;
46407;SDS011;32110;45.724;21.276;2023-02-18T12:21:05;57.47;;;27.92;;
46407;SDS011;32110;45.724;21.276;2023-02-18T12:23:42;52.97;;;26.95;;
46407;SDS011;32110;45.724;21.276;2023-02-18T12:39:10;50.95;;;27.85;;
46407;SDS011;32110;45.724;21.276;2023-02-18T12:46:50;58.45;;;27.48;;
46407;SDS011;32110;45.724;21.276;2023-02-18T12:52:09;52.72;;;28.40;;
46407;SDS011;32110;45.724;21.276;2023-02-18T12:54:42;52.20;;;27.52;;
46407;SDS011;32110;45.724;21.276;2023-02-18T12:57:22;57.63;;;28.85;;
46407;SDS011;32110;45.724;21.276;2023-02-18T13:15:04;51.55;;;26.33;;
46407;SDS011;32110;45.724;21.276;2023-02-18T13:17:35;50.67;;;26.90;;
46407;SDS011;32110;45.724;21.276;2023-02-18T13:20:03;54.47;;;28.30;;
46407;SDS011;32110;45.724;21.276;2023-02-18T13:24:57;49.63;;;24.80;;
46407;SDS011;32110;45.724;21.276;2023-02-18T13:27:37;57.20;;;28.35;;
46407;SDS011;32110;45.724;21.276;2023-02-18T13:37:50;49.75;;;26.88;;
46407;SDS011;32110;45.724;21.276;2023-02-18T13:40:20;49.55;;;26.10;;
46407;SDS011;32110;45.724;21.276;2023-02-18T13:42:50;55.92;;;28.83;;
46407;SDS011;32110;45.724;21.276;2023-02-18T13:47:44;51.33;;;25.52;;
46407;SDS011;32110;45.724;21.276;2023-02-18T13:55:36;46.80;;;24.17;;
46407;SDS011;32110;45.724;21.276;2023-02-18T13:58:03;51.45;;;23.80;;
46407;SDS011;32110;45.724;21.276;2023-02-18T14:00:35;43.20;;;23.58;;
46407;SDS011;32110;45.724;21.276;2023-02-18T14:03:28;46.90;;;25.70;;
46407;SDS011;32110;45.724;21.276;2023-02-18T14:05:56;41.50;;;21.85;;
46407;SDS011;32110;45.724;21.276;2023-02-18T14:08:33;43.95;;;22.02;;
46407;SDS011;32110;45.724;21.276;2023-02-18T14:11:33;41.65;;;22.90;;
46407;SDS011;32110;45.724;21.276;2023-02-18T14:13:55;42.55;;;21.08;;
46407;SDS011;32110;45.724;21.276;2023-02-18T14:19:27;40.40;;;20.83;;
46407;SDS011;32110;45.724;21.276;2023-02-18T14:21:52;37.72;;;21.02;;
46407;SDS011;32110;45.724;21.276;2023-02-18T14:24:47;42.30;;;22.70;;
46407;SDS011;32110;45.724;21.276;2023-02-18T14:27:14;43.35;;;23.65;;
46407;SDS011;32110;45.724;21.276;2023-02-18T14:29:39;40.85;;;22.67;;
46407;SDS011;32110;45.724;21.276;2023-02-18T14:32:14;40.53;;;22.13;;
46407;SDS011;32110;45.724;21.276;2023-02-18T14:34:48;40.03;;;22.13;;
46407;SDS011;32110;45.724;21.276;2023-02-18T14:49:57;46.40;;;21.77;;
46407;SDS011;32110;45.724;21.276;2023-02-18T14:54:49;47.13;;;25.53;;
46407;SDS011;32110;45.724;21.276;2023-02-18T14:57:15;53.55;;;27.85;;
46407;SDS011;32110;45.724;21.276;2023-02-18T14:59:41;46.95;;;25.25;;
46407;SDS011;32110;45.724;21.276;2023-02-18T15:02:40;43.72;;;23.73;;
46407;SDS011;32110;45.724;21.276;2023-02-18T15:05:18;46.97;;;24.70;;
46407;SDS011;32110;45.724;21.276;2023-02-18T15:08:04;55.25;;;27.17;;
46407;SDS011;32110;45.724;21.276;2023-02-18T15:12:57;53.07;;;26.53;;
46407;SDS011;32110;45.724;21.276;2023-02-18T15:15:24;46.72;;;25.05;;
46407;SDS011;32110;45.724;21.276;2023-02-18T15:17:50;47.47;;;25.10;;
46407;SDS011;32110;45.724;21.276;2023-02-18T15:20:15;55.63;;;28.42;;
46407;SDS011;32110;45.724;21.276;2023-02-18T15:22:40;57.43;;;28.90;;
46407;SDS011;32110;45.724;21.276;2023-02-18T15:25:08;47.90;;;26.13;;
46407;SDS011;32110;45.724;21.276;2023-02-18T15:27:37;50.65;;;24.50;;
46407;SDS011;32110;45.724;21.276;2023-02-18T15:30:13;49.15;;;26.27;;
46407;SDS011;32110;45.724;21.276;2023-02-18T15:32:43;47.08;;;24.45;;
46407;SDS011;32110;45.724;21.276;2023-02-18T15:35:13;42.43;;;23.80;;
46407;SDS011;32110;45.724;21.276;2023-02-18T15:37:42;45.70;;;25.02;;
46407;SDS011;32110;45.724;21.276;2023-02-18T15:40:17;45.63;;;24.90;;
46407;SDS011;32110;45.724;21.276;2023-02-18T15:42:44;52.80;;;28.35;;
46407;SDS011;32110;45.724;21.276;2023-02-18T15:45:15;55.20;;;28.48;;
46407;SDS011;32110;45.724;21.276;2023-02-18T15:47:45;66.57;;;31.17;;
46407;SDS011;32110;45.724;21.276;2023-02-18T15:50:23;90.15;;;37.28;;
46407;SDS011;32110;45.724;21.276;2023-02-18T15:52:49;61.92;;;30.83;;
46407;SDS011;32110;45.724;21.276;2023-02-18T15:55:21;53.20;;;28.73;;
46407;SDS011;32110;45.724;21.276;2023-02-18T15:57:49;49.78;;;26.08;;
46407;SDS011;32110;45.724;21.276;2023-02-18T16:00:18;53.22;;;27.52;;
46407;SDS011;32110;45.724;21.276;2023-02-18T16:02:51;45.40;;;25.17;;
46407;SDS011;32110;45.724;21.276;2023-02-18T16:05:17;53.53;;;26.95;;
46407;SDS011;32110;45.724;21.276;2023-02-18T16:07:52;52.28;;;27.65;;
46407;SDS011;32110;45.724;21.276;2023-02-18T16:12:46;59.13;;;27.13;;
46407;SDS011;32110;45.724;21.276;2023-02-18T16:15:15;52.60;;;28.15;;
46407;SDS011;32110;45.724;21.276;2023-02-18T16:17:42;58.83;;;29.75;;
46407;SDS011;32110;45.724;21.276;2023-02-18T16:20:21;54.58;;;29.48;;
46407;SDS011;32110;45.724;21.276;2023-02-18T16:22:51;55.75;;;29.70;;
46407;SDS011;32110;45.724;21.276;2023-02-18T16:28:25;76.47;;;36.97;;
46407;SDS011;32110;45.724;21.276;2023-02-18T16:30:32;72.07;;;34.00;;
46407;SDS011;32110;45.724;21.276;2023-02-18T16:32:57;61.28;;;31.15;;
46407;SDS011;32110;45.724;21.276;2023-02-18T16:35:24;65.07;;;31.50;;
46407;SDS011;32110;45.724;21.276;2023-02-18T16:37:51;61.30;;;30.83;;
46407;SDS011;32110;45.724;21.276;2023-02-18T16:40:33;56.30;;;28.48;;
46407;SDS011;32110;45.724;21.276;2023-02-18T16:43:08;54.90;;;28.85;;
46407;SDS011;32110;45.724;21.276;2023-02-18T16:45:35;51.85;;;27.67;;
46407;SDS011;32110;45.724;21.276;2023-02-18T16:48:01;54.33;;;28.48;;
46407;SDS011;32110;45.724;21.276;2023-02-18T16:50:26;53.58;;;28.33;;
46407;SDS011;32110;45.724;21.276;2023-02-18T16:52:53;54.97;;;28.30;;
46407;SDS011;32110;45.724;21.276;2023-02-18T16:55:22;57.13;;;27.97;;